Etusivu
METAR-TAF:

METAR-TAF

Lentoasemat :

Omaha, Nebraska, Yhdysvallat

Leveyspiiri: 41-11-45N, Pituuspiiri: 096-06-44W, korkeus merenpinnasta: 320 m

Tämänhetkinen sää

Tämä raportti tehtiin 14 minuuttia sitten, kello 19.15 UTC
Tuuli 12 kn etelästä puuskistuen 17 kn:hen
Lämpötila -3°C
Kosteus 54%
Ilmanpaine 1028 hPa
Näkyvyys: 16.1 km
selkeää

METAR: KMLE 121915Z AUTO 17012G17KT 10SM CLR M03/M11 A3037 RMK AO2 T10311115

Aika: 13:29 (19:29 UTC)


TAF: puuttuu

Säähavainnot ja -ennusteet yli 4000 lentoasemalta (METAR- ja TAF-raportit).

Käytössä olevat sääasemat on merkitty karttaan keltaisilla ja punaisilla pisteillä.

Aseta hiiri pisteen päälle nähdäksesi sääaseman nimen.

Klikkaa sitten nähdäksesi säähavainnot ja -ennusteet.

Kartan vaihtaminen: klikkaa mustalla rastilla varustettuja vihreitä pisteitä, niin voit zoomata sisään; viivalla varustettua vihreää pistettä, niin voit zoomata ulos tai vihreitä nuolia, niin pääset viereisille kartoille.


METAR-TAF: